Kinsale, Virginia
Current Conditions -  °F | °C
As of 11:53 PM on Thursday 27 Nov 2014 (Local Time) from KNUI Reporting Station
Broken Clouds Broken Clouds  
Wind Chill: -1°   Ceiling: 8000
Heat Index:   Visibility: 10mi
Dew Point: -3°   Wind: 10mph
Humidity: 65%   Direction: 290°WNW
Pressure: 30.17"   Gusts: NA
Location:  38.03°N, 76.58°W
Report Text: KNUI 280453Z AUTO 29009KT 10SM BKN080 03/M03 A3017 RMK AO2 SLP215 T00331028 400670011
Loading
Personal Weather Stations






























Interactive Weather Map New forecast layout! Learn more

10-Day Weather Forecast

Advertisements
Track Severe Weather on mobile